Terminal Aerodrome Forecast
Issued by NWS Caribou, ME

Home | Current Version | Previous Version | Text Only | Print | Product List | Glossary On
Versions: 1 2 3 4 5 6 7 8 9 10 11 12 13 14 15 16 17 18 19 20
000
FTUS41 KCAR 011738
TAFBGR
TAF
KBGR 011738Z 0118/0218 23008KT P6SM -SHRA SCT025 BKN090
      TEMPO 0118/0121 4SM -TSRA BKN025CB
     FM012200 25006KT P6SM BKN140=

USA.gov is the U.S. government's official web portal to all federal, state and local government web resources and services.